createdAt,value
2022-08-18T00:01:26.098Z,12.30
2022-08-18T00:04:03.172Z,12.25
2022-08-18T00:06:31.979Z,12.20
2022-08-18T00:09:08.799Z,13.05
2022-08-18T00:11:43.525Z,12.30
2022-08-18T00:14:22.730Z,11.35
2022-08-18T00:16:54.515Z,11.10
2022-08-18T00:19:46.515Z,12.95
2022-08-18T00:22:16.439Z,11.55
2022-08-18T00:24:48.497Z,11.57
2022-08-18T00:27:28.770Z,10.98
2022-08-18T00:30:01.009Z,12.20
2022-08-18T00:32:34.449Z,11.43
2022-08-18T00:35:09.486Z,10.95
2022-08-18T00:37:38.880Z,12.80
2022-08-18T00:40:09.490Z,11.68
2022-08-18T00:42:47.591Z,10.27
2022-08-18T00:45:23.984Z,11.77
2022-08-18T00:47:52.895Z,10.93
2022-08-18T00:50:34.867Z,13.18
2022-08-18T00:53:12.678Z,11.98
2022-08-18T00:55:53.939Z,10.88
2022-08-18T00:58:37.568Z,10.52
2022-08-18T01:01:08.861Z,10.77
2022-08-18T01:03:42.882Z,9.95
2022-08-18T01:06:22.473Z,10.32
2022-08-18T01:08:50.533Z,10.93
2022-08-18T01:11:18.371Z,11.10
2022-08-18T01:13:46.330Z,10.63
2022-08-18T01:16:33.134Z,10.45
2022-08-18T01:19:26.384Z,10.77
2022-08-18T01:22:02.331Z,11.13
2022-08-18T01:24:55.188Z,11.40
2022-08-18T01:27:32.604Z,11.15
2022-08-18T01:30:10.059Z,10.73
2022-08-18T01:32:39.428Z,11.40
2022-08-18T01:35:09.915Z,10.82
2022-08-18T01:37:38.432Z,9.73
2022-08-18T01:41:24.378Z,10.32
2022-08-18T01:42:57.215Z,10.77
2022-08-18T01:45:26.356Z,10.32
2022-08-18T01:47:57.192Z,10.02
2022-08-18T01:50:25.139Z,11.55
2022-08-18T01:52:53.666Z,10.23
2022-08-18T01:55:23.064Z,11.07
2022-08-18T01:57:51.152Z,11.13
2022-08-18T02:00:20.912Z,11.07
2022-08-18T02:03:00.172Z,12.37
2022-08-18T02:05:44.204Z,10.77
2022-08-18T02:08:15.765Z,10.30
2022-08-18T02:10:45.838Z,10.68
2022-08-18T02:13:13.698Z,10.75
2022-08-18T02:15:42.828Z,10.82
2022-08-18T02:18:45.220Z,10.60
2022-08-18T02:21:14.219Z,10.85
2022-08-18T02:23:52.935Z,11.45
2022-08-18T02:26:26.068Z,12.05
2022-08-18T02:28:59.964Z,11.98
2022-08-18T02:31:28.553Z,11.68
2022-08-18T02:33:57.348Z,12.23
2022-08-18T02:36:25.524Z,11.20
2022-08-18T02:38:59.482Z,10.60
2022-08-18T02:41:29.233Z,10.48
2022-08-18T02:43:58.887Z,11.43
2022-08-18T02:46:31.475Z,12.38
2022-08-18T02:49:08.720Z,10.93
2022-08-18T02:51:39.764Z,11.15
2022-08-18T02:54:09.568Z,10.90
2022-08-18T02:56:41.430Z,10.35
2022-08-18T02:59:16.122Z,9.50
2022-08-18T03:01:46.897Z,11.15
2022-08-18T03:04:24.038Z,10.88
2022-08-18T03:06:55.517Z,9.30
2022-08-18T03:09:23.831Z,9.35
2022-08-18T03:11:52.898Z,9.80
2022-08-18T03:14:20.844Z,10.30
2022-08-18T03:16:53.372Z,10.75
2022-08-18T03:19:28.811Z,10.85
2022-08-18T03:22:03.916Z,10.00
2022-08-18T03:24:37.802Z,11.15
2022-08-18T03:27:07.263Z,11.55
2022-08-18T03:29:39.061Z,10.82
2022-08-18T03:32:08.634Z,11.00
2022-08-18T03:34:36.552Z,11.47
2022-08-18T03:37:05.801Z,11.43
2022-08-18T03:39:36.374Z,11.05
2022-08-18T03:44:38.773Z,12.90
2022-08-18T03:47:11.264Z,10.90
2022-08-18T03:49:39.443Z,12.10
2022-08-18T03:52:10.935Z,11.30
2022-08-18T03:54:39.521Z,12.35
2022-08-18T03:57:12.324Z,10.02
2022-08-18T03:59:43.772Z,11.95
2022-08-18T04:02:15.754Z,11.00
2022-08-18T04:04:43.673Z,10.90
2022-08-18T04:07:14.559Z,11.73
2022-08-18T04:09:44.079Z,11.48
2022-08-18T04:12:16.657Z,11.60
2022-08-18T04:14:48.589Z,11.95
2022-08-18T04:17:27.044Z,11.20
2022-08-18T04:19:56.895Z,10.63
2022-08-18T04:22:27.560Z,10.80
2022-08-18T04:24:58.951Z,10.63
2022-08-18T04:27:28.032Z,10.27
2022-08-18T04:30:02.606Z,12.52
2022-08-18T04:32:37.856Z,12.80
2022-08-18T04:35:12.360Z,10.77
2022-08-18T04:37:45.216Z,11.18
2022-08-18T04:40:14.643Z,11.65
2022-08-18T04:42:46.954Z,12.40
2022-08-18T04:45:14.763Z,12.50
2022-08-18T04:47:43.466Z,13.25
2022-08-18T04:50:21.675Z,12.63
2022-08-18T04:53:07.755Z,12.63
2022-08-18T04:55:55.429Z,13.43
2022-08-18T04:58:24.788Z,14.00
2022-08-18T05:01:01.876Z,15.02
2022-08-18T05:03:29.794Z,15.82
2022-08-18T05:06:01.586Z,16.38
2022-08-18T05:08:30.324Z,16.63
2022-08-18T05:11:03.916Z,15.70
2022-08-18T05:13:35.780Z,17.02
2022-08-18T05:16:11.140Z,16.70
2022-08-18T05:18:42.664Z,17.05
2022-08-18T05:21:14.352Z,16.50
2022-08-18T05:23:47.030Z,16.55
2022-08-18T05:26:18.068Z,16.77
2022-08-18T05:28:46.917Z,15.95
2022-08-18T05:31:26.200Z,16.92
2022-08-18T05:33:59.347Z,16.48
2022-08-18T05:36:47.392Z,18.77
2022-08-18T05:39:18.458Z,18.05
2022-08-18T05:41:53.705Z,17.60
2022-08-18T05:44:35.395Z,19.60
2022-08-18T05:47:04.168Z,20.50
2022-08-18T05:49:32.386Z,19.67
2022-08-18T05:52:08.542Z,18.58
2022-08-18T05:55:19.927Z,19.35
2022-08-18T05:57:57.064Z,17.98
2022-08-18T06:00:25.842Z,18.42
2022-08-18T06:03:04.287Z,18.70
2022-08-18T06:05:49.552Z,18.17
2022-08-18T06:08:22.572Z,17.45
2022-08-18T06:10:51.621Z,17.95
2022-08-18T06:13:21.238Z,17.88
2022-08-18T06:16:09.427Z,18.23
2022-08-18T06:19:08.988Z,17.30
2022-08-18T06:21:59.964Z,16.88
2022-08-18T06:25:01.506Z,15.98
2022-08-18T06:27:51.706Z,17.50
2022-08-18T06:30:25.033Z,16.33
2022-08-18T06:33:25.324Z,16.98
2022-08-18T06:36:30.841Z,16.10
2022-08-18T06:39:17.932Z,15.98
2022-08-18T06:41:49.153Z,18.58
2022-08-18T06:44:23.619Z,18.05
2022-08-18T06:46:56.493Z,16.85
2022-08-18T06:49:46.751Z,15.88
2022-08-18T06:52:38.722Z,16.23
2022-08-18T06:55:16.043Z,16.25
2022-08-18T06:58:02.835Z,16.70
2022-08-18T07:00:34.234Z,15.57
2022-08-18T07:03:38.116Z,17.33
2022-08-18T07:06:24.611Z,14.02
2022-08-18T07:08:54.927Z,14.60
2022-08-18T07:11:24.282Z,15.45
2022-08-18T07:14:16.554Z,14.48
2022-08-18T07:16:58.174Z,13.65
2022-08-18T07:19:31.054Z,14.00
2022-08-18T07:22:17.024Z,13.82
2022-08-18T07:24:51.759Z,14.13
2022-08-18T07:27:23.568Z,13.65
2022-08-18T07:30:15.254Z,14.40
2022-08-18T07:33:11.557Z,14.30
2022-08-18T07:35:45.410Z,13.27
2022-08-18T07:41:30.410Z,12.65
2022-08-18T07:44:18.780Z,13.43
2022-08-18T07:47:02.111Z,14.38
2022-08-18T07:49:36.567Z,13.80
2022-08-18T07:52:44.480Z,14.43
2022-08-18T07:55:30.265Z,14.00
2022-08-18T07:58:33.487Z,12.50
2022-08-18T08:01:18.518Z,13.65
2022-08-18T08:04:25.369Z,12.20
2022-08-18T08:07:24.932Z,10.60
2022-08-18T08:10:32.652Z,11.70
2022-08-18T08:13:44.135Z,12.05
2022-08-18T08:16:29.342Z,11.35
2022-08-18T08:19:59.483Z,10.85
2022-08-18T08:22:58.079Z,10.70
2022-08-18T08:25:46.234Z,11.13
2022-08-18T08:28:42.045Z,12.43
2022-08-18T08:34:38.491Z,10.88
2022-08-18T08:37:15.873Z,11.25
2022-08-18T08:40:17.184Z,10.07
2022-08-18T08:43:03.450Z,10.00
2022-08-18T08:45:40.558Z,10.23
2022-08-18T08:48:14.560Z,9.38
2022-08-18T08:50:50.462Z,9.00
2022-08-18T08:53:30.385Z,9.23
2022-08-18T08:56:06.666Z,8.65
2022-08-18T08:58:42.396Z,8.65
2022-08-18T09:01:37.388Z,8.13
2022-08-18T09:04:36.487Z,8.07
2022-08-18T09:07:38.210Z,9.40
2022-08-18T09:10:41.103Z,7.78
2022-08-18T09:13:54.841Z,8.02
2022-08-18T09:17:02.730Z,7.22
2022-08-18T09:20:15.477Z,7.45
2022-08-18T09:22:57.673Z,7.30
2022-08-18T09:25:37.362Z,7.47
2022-08-18T09:28:20.429Z,8.43
2022-08-18T09:31:08.683Z,6.82
2022-08-18T09:33:49.258Z,8.02
2022-08-18T09:36:49.155Z,7.82
2022-08-18T09:39:59.267Z,8.05
2022-08-18T09:42:53.770Z,8.93
2022-08-18T09:45:34.304Z,8.20
2022-08-18T09:48:11.341Z,8.55
2022-08-18T09:50:57.235Z,8.15
2022-08-18T09:53:48.291Z,9.57
2022-08-18T09:59:55.571Z,9.45
2022-08-18T10:02:33.017Z,8.82
2022-08-18T10:05:21.287Z,8.52
2022-08-18T10:07:58.261Z,8.40
2022-08-18T10:11:11.382Z,8.23
2022-08-18T10:13:51.270Z,8.60
2022-08-18T10:17:13.073Z,8.75
2022-08-18T10:20:23.977Z,9.10
2022-08-18T10:22:57.293Z,9.98
2022-08-18T10:25:36.937Z,8.93
2022-08-18T10:28:11.910Z,8.98
2022-08-18T10:34:19.096Z,8.75
2022-08-18T10:36:53.200Z,9.18
2022-08-18T10:39:27.573Z,7.90
2022-08-18T10:41:58.923Z,8.10
2022-08-18T10:44:32.466Z,8.40
2022-08-18T10:50:21.272Z,7.85
2022-08-18T10:53:24.652Z,8.02
2022-08-18T10:55:50.801Z,7.63
2022-08-18T10:58:37.496Z,7.60
2022-08-18T11:01:37.189Z,7.22
2022-08-18T11:04:39.071Z,7.38
2022-08-18T11:07:19.839Z,7.40
2022-08-18T11:09:57.768Z,8.73
2022-08-18T11:13:05.262Z,8.48
2022-08-18T11:16:03.210Z,8.68
2022-08-18T11:18:42.979Z,8.80
2022-08-18T11:21:33.297Z,10.38
2022-08-18T11:24:21.158Z,10.30
2022-08-18T11:26:53.524Z,8.95
2022-08-18T11:29:33.372Z,8.40
2022-08-18T11:32:35.364Z,8.93
2022-08-18T11:35:18.414Z,7.78
2022-08-18T11:37:56.138Z,8.18
2022-08-18T11:43:41.393Z,8.35
2022-08-18T11:46:30.275Z,8.63
2022-08-18T11:49:01.627Z,9.88
2022-08-18T11:51:32.797Z,9.38
2022-08-18T11:54:15.458Z,10.18
2022-08-18T11:56:44.336Z,10.60
2022-08-18T11:59:52.563Z,11.75
2022-08-18T12:02:19.568Z,12.38
2022-08-18T12:05:03.248Z,13.10
2022-08-18T12:07:37.228Z,11.35
2022-08-18T12:10:26.176Z,9.57
2022-08-18T12:13:00.913Z,9.20
2022-08-18T12:15:44.110Z,8.93
2022-08-18T12:18:26.022Z,9.40
2022-08-18T12:21:02.984Z,9.63
2022-08-18T12:23:38.883Z,9.77
2022-08-18T12:29:04.985Z,10.63
2022-08-18T12:31:42.660Z,10.82
2022-08-18T12:34:26.857Z,10.38
2022-08-18T12:36:57.446Z,9.63
2022-08-18T12:39:25.428Z,10.40
2022-08-18T12:41:53.124Z,10.10
2022-08-18T12:44:21.488Z,10.25
2022-08-18T12:46:49.513Z,9.77
2022-08-18T12:49:26.926Z,10.27
2022-08-18T12:51:55.810Z,9.23
2022-08-18T12:54:25.483Z,10.43
2022-08-18T12:56:56.323Z,10.07
2022-08-18T12:59:25.162Z,9.77
2022-08-18T13:01:58.826Z,11.50
2022-08-18T13:04:32.935Z,9.13
2022-08-18T13:07:04.782Z,10.65
2022-08-18T13:09:52.823Z,9.90
2022-08-18T13:12:24.010Z,9.80
2022-08-18T13:14:58.246Z,8.63
2022-08-18T13:17:34.045Z,9.15
2022-08-18T13:20:10.501Z,9.10
2022-08-18T13:22:41.450Z,9.50
2022-08-18T13:25:32.593Z,8.40
2022-08-18T13:28:01.781Z,8.30
2022-08-18T13:30:32.423Z,7.82
2022-08-18T13:33:06.110Z,7.38
2022-08-18T13:35:52.335Z,7.23
2022-08-18T13:38:28.023Z,7.00
2022-08-18T13:40:59.493Z,7.43
2022-08-18T13:43:35.903Z,7.88
2022-08-18T13:46:06.396Z,6.75
2022-08-18T13:48:37.854Z,6.95
2022-08-18T13:51:08.625Z,6.78
2022-08-18T13:53:50.394Z,6.85
2022-08-18T13:56:19.833Z,7.22
2022-08-18T13:58:53.477Z,6.63
2022-08-18T14:01:44.490Z,7.25
2022-08-18T14:04:12.752Z,6.72
2022-08-18T14:06:51.190Z,6.97
2022-08-18T14:09:35.929Z,6.72
2022-08-18T14:12:21.814Z,7.68
2022-08-18T14:14:55.032Z,7.65
2022-08-18T14:17:28.270Z,7.38
2022-08-18T14:20:21.853Z,7.35
2022-08-18T14:23:23.865Z,7.22
2022-08-18T14:26:14.003Z,7.22
2022-08-18T14:28:41.718Z,6.97
2022-08-18T14:31:11.814Z,6.78
2022-08-18T14:36:20.353Z,6.95
2022-08-18T14:39:02.940Z,7.30
2022-08-18T14:41:34.535Z,6.75
2022-08-18T14:44:12.947Z,6.95
2022-08-18T14:46:52.106Z,7.35
2022-08-18T14:49:28.167Z,7.32
2022-08-18T14:51:59.124Z,7.20
2022-08-18T14:56:56.697Z,7.22
2022-08-18T14:59:25.183Z,7.03
2022-08-18T15:01:53.621Z,7.75
2022-08-18T15:04:22.503Z,7.10
2022-08-18T15:06:56.565Z,6.03
2022-08-18T15:09:34.556Z,6.57
2022-08-18T15:12:02.447Z,6.30
2022-08-18T15:14:32.991Z,5.90
2022-08-18T15:17:11.601Z,6.72
2022-08-18T15:19:59.839Z,6.75
2022-08-18T15:22:50.296Z,6.65
2022-08-18T15:25:36.064Z,6.70
2022-08-18T15:28:04.713Z,5.85
2022-08-18T15:30:32.611Z,6.57
2022-08-18T15:33:03.270Z,7.07
2022-08-18T15:35:32.624Z,6.78
2022-08-18T15:38:23.595Z,6.95
2022-08-18T15:41:05.932Z,6.75
2022-08-18T15:43:37.032Z,6.50
2022-08-18T15:46:16.836Z,7.03
2022-08-18T15:48:44.889Z,8.73
2022-08-18T15:51:13.488Z,7.50
2022-08-18T15:53:46.388Z,8.27
2022-08-18T15:56:26.013Z,8.37
2022-08-18T15:58:53.934Z,7.50
2022-08-18T16:01:30.318Z,8.15
2022-08-18T16:04:01.274Z,8.07
2022-08-18T16:06:32.595Z,8.77
2022-08-18T16:09:06.578Z,8.52
2022-08-18T16:11:34.411Z,7.25
2022-08-18T16:14:02.172Z,7.60
2022-08-18T16:16:36.300Z,7.88
2022-08-18T16:19:07.957Z,7.30
2022-08-18T16:21:47.349Z,7.82
2022-08-18T16:24:18.235Z,8.23
2022-08-18T16:26:46.352Z,7.90
2022-08-18T16:29:14.389Z,9.02
2022-08-18T16:31:42.166Z,7.50
2022-08-18T16:34:19.627Z,8.23
2022-08-18T16:36:48.199Z,7.72
2022-08-18T16:39:18.913Z,7.82
2022-08-18T16:41:48.247Z,7.47
2022-08-18T16:46:49.470Z,7.18
2022-08-18T16:49:18.066Z,7.78
2022-08-18T16:51:46.026Z,6.60
2022-08-18T16:54:14.446Z,5.90
2022-08-18T16:56:45.504Z,7.13
2022-08-18T17:02:23.780Z,6.25
2022-08-18T17:04:52.179Z,5.57
2022-08-18T17:07:19.961Z,5.38
2022-08-18T17:09:55.228Z,5.13
2022-08-18T17:12:26.592Z,5.40
2022-08-18T17:14:56.443Z,5.37
2022-08-18T17:17:24.520Z,5.57
2022-08-18T17:19:52.328Z,5.30
2022-08-18T17:22:20.067Z,5.75
2022-08-18T17:24:51.162Z,5.22
2022-08-18T17:27:27.658Z,5.43
2022-08-18T17:30:16.669Z,4.97
2022-08-18T17:33:00.209Z,5.20
2022-08-18T17:35:35.519Z,4.95
2022-08-18T17:38:34.208Z,4.70
2022-08-18T17:41:12.412Z,4.47
2022-08-18T17:46:27.655Z,4.10
2022-08-18T17:49:10.143Z,6.57
2022-08-18T17:51:57.873Z,5.35
2022-08-18T17:54:47.520Z,5.68
2022-08-18T17:57:23.512Z,5.95
2022-08-18T18:00:05.973Z,6.35
2022-08-18T18:02:41.042Z,5.35
2022-08-18T18:05:12.472Z,6.17
2022-08-18T18:07:52.523Z,5.15
2022-08-18T18:11:04.446Z,5.90
2022-08-18T18:13:34.513Z,5.68
2022-08-18T18:16:27.282Z,5.75
2022-08-18T18:19:03.361Z,6.32
2022-08-18T18:21:55.381Z,5.90
2022-08-18T18:27:40.837Z,5.65
2022-08-18T18:30:27.924Z,4.65
2022-08-18T18:33:05.610Z,5.20
2022-08-18T18:35:54.118Z,5.55
2022-08-18T18:38:32.528Z,4.82
2022-08-18T18:41:13.768Z,6.05
2022-08-18T18:43:46.599Z,4.93
2022-08-18T18:46:22.246Z,4.82
2022-08-18T18:49:03.266Z,5.97
2022-08-18T18:51:50.929Z,5.03
2022-08-18T18:54:59.058Z,4.72
2022-08-18T18:57:52.091Z,4.57
2022-08-18T19:01:00.021Z,5.15
2022-08-18T19:03:33.903Z,4.82
2022-08-18T19:06:31.757Z,5.50
2022-08-18T19:09:30.713Z,5.18
2022-08-18T19:12:23.048Z,5.07
2022-08-18T19:15:00.257Z,4.95
2022-08-18T19:18:01.291Z,5.57
2022-08-18T19:22:02.257Z,5.15
2022-08-18T19:23:51.728Z,4.80
2022-08-18T19:26:27.146Z,4.40
2022-08-18T19:29:16.777Z,5.07
2022-08-18T19:31:50.073Z,4.32
2022-08-18T19:34:29.971Z,4.07
2022-08-18T19:37:07.778Z,4.95
2022-08-18T19:39:44.458Z,4.30
2022-08-18T19:42:27.382Z,4.38
2022-08-18T19:45:40.856Z,3.95
2022-08-18T19:48:18.243Z,3.75
2022-08-18T19:51:07.833Z,4.50
2022-08-18T19:54:14.253Z,4.00
2022-08-18T19:56:53.931Z,3.75
2022-08-18T19:59:46.465Z,3.75
2022-08-18T20:02:35.388Z,3.60
2022-08-18T20:05:15.297Z,4.07
2022-08-18T20:08:01.957Z,3.20
2022-08-18T20:11:22.252Z,4.35
2022-08-18T20:14:20.689Z,3.67
2022-08-18T20:17:07.151Z,3.60
2022-08-18T20:19:52.367Z,3.60
2022-08-18T20:22:24.848Z,5.05
2022-08-18T20:25:31.544Z,4.43
2022-08-18T20:28:01.076Z,3.20
2022-08-18T20:30:42.334Z,3.63
2022-08-18T20:33:44.982Z,3.35
2022-08-18T20:36:36.786Z,3.72
2022-08-18T20:39:44.440Z,4.00
2022-08-18T20:42:21.585Z,4.05
2022-08-18T20:44:50.849Z,4.30
2022-08-18T20:47:45.716Z,4.57
2022-08-18T20:50:43.108Z,3.75
2022-08-18T20:53:21.871Z,4.18
2022-08-18T20:56:31.166Z,4.38
2022-08-18T20:59:20.309Z,4.68
2022-08-18T21:01:55.752Z,3.97
2022-08-18T21:04:52.284Z,4.70
2022-08-18T21:07:38.060Z,4.35
2022-08-18T21:10:21.667Z,4.78
2022-08-18T21:12:58.184Z,4.75
2022-08-18T21:15:30.817Z,4.20
2022-08-18T21:18:07.606Z,3.70
2022-08-18T21:20:37.616Z,4.32
2022-08-18T21:23:12.929Z,4.30
2022-08-18T21:25:55.712Z,5.72
2022-08-18T21:28:31.308Z,4.15
2022-08-18T21:31:29.323Z,3.60
2022-08-18T21:34:00.253Z,4.43
2022-08-18T21:36:33.066Z,4.18
2022-08-18T21:39:14.561Z,4.20
2022-08-18T21:41:56.759Z,4.10
2022-08-18T21:44:54.576Z,3.75
2022-08-18T21:47:31.929Z,4.47
2022-08-18T21:50:18.553Z,4.97
2022-08-18T21:53:12.106Z,4.82
2022-08-18T21:55:45.342Z,4.90
2022-08-18T21:58:16.931Z,4.82
2022-08-18T22:01:05.197Z,4.25
2022-08-18T22:03:34.493Z,4.75
2022-08-18T22:06:32.938Z,4.03
2022-08-18T22:09:27.874Z,4.22
2022-08-18T22:12:44.742Z,3.53
2022-08-18T22:15:22.493Z,4.57
2022-08-18T22:18:00.405Z,3.83
2022-08-18T22:20:47.607Z,3.97
2022-08-18T22:24:03.639Z,4.88
2022-08-18T22:26:34.841Z,8.77
2022-08-18T22:29:34.508Z,4.20
2022-08-18T22:32:04.489Z,4.18
2022-08-18T22:34:36.275Z,5.28
2022-08-18T22:37:14.861Z,4.60
2022-08-18T22:39:56.999Z,4.00
2022-08-18T22:42:29.398Z,3.33
2022-08-18T22:45:04.631Z,4.82
2022-08-18T22:47:43.680Z,4.25
2022-08-18T22:50:15.317Z,4.18
2022-08-18T22:52:48.756Z,3.92
2022-08-18T22:55:21.778Z,3.58
2022-08-18T22:57:56.993Z,4.05
2022-08-18T23:00:28.390Z,5.13
2022-08-18T23:02:57.712Z,4.53
2022-08-18T23:05:29.150Z,3.47
2022-08-18T23:07:57.014Z,3.78
2022-08-18T23:10:24.771Z,3.47
2022-08-18T23:12:52.612Z,3.55
2022-08-18T23:15:20.915Z,3.72
2022-08-18T23:17:48.586Z,3.53
2022-08-18T23:20:20.753Z,3.47
2022-08-18T23:25:24.470Z,3.45
2022-08-18T23:27:55.792Z,3.35
2022-08-18T23:30:27.672Z,3.03
2022-08-18T23:32:57.603Z,3.25
2022-08-18T23:35:27.966Z,2.97
2022-08-18T23:37:55.655Z,3.10
2022-08-18T23:40:25.457Z,3.40
2022-08-18T23:42:53.388Z,3.25
2022-08-18T23:45:21.286Z,2.90
2022-08-18T23:47:49.266Z,3.42
2022-08-18T23:50:16.875Z,2.88
2022-08-18T23:52:47.169Z,3.15
2022-08-18T23:55:18.011Z,2.97
2022-08-18T23:57:48.390Z,2.78
